sensor_id;sensor_type;location;lat;lon;timestamp;temperature;humidity
20833;DHT22;56075;51.264;7.150;2023-02-19T00:00:36;9.70;99.90
20833;DHT22;56075;51.264;7.150;2023-02-19T00:03:08;9.90;99.90
20833;DHT22;56075;51.264;7.150;2023-02-19T00:05:39;9.80;99.90
20833;DHT22;56075;51.264;7.150;2023-02-19T00:08:10;9.90;99.90
20833;DHT22;56075;51.264;7.150;2023-02-19T00:10:41;9.80;99.90
20833;DHT22;56075;51.264;7.150;2023-02-19T00:13:12;9.60;99.90
20833;DHT22;56075;51.264;7.150;2023-02-19T00:15:44;9.70;99.90
20833;DHT22;56075;51.264;7.150;2023-02-19T00:18:15;9.70;99.90
20833;DHT22;56075;51.264;7.150;2023-02-19T00:20:46;9.70;99.90
20833;DHT22;56075;51.264;7.150;2023-02-19T00:23:17;9.70;99.90
20833;DHT22;56075;51.264;7.150;2023-02-19T00:25:49;9.70;99.90
20833;DHT22;56075;51.264;7.150;2023-02-19T00:28:20;11.30;99.90
20833;DHT22;56075;51.264;7.150;2023-02-19T00:30:51;9.80;99.90
20833;DHT22;56075;51.264;7.150;2023-02-19T00:33:22;9.70;99.90
20833;DHT22;56075;51.264;7.150;2023-02-19T00:35:53;9.80;99.90
20833;DHT22;56075;51.264;7.150;2023-02-19T00:38:24;9.70;99.90
20833;DHT22;56075;51.264;7.150;2023-02-19T00:40:57;9.60;99.90
20833;DHT22;56075;51.264;7.150;2023-02-19T00:43:29;9.70;99.90
20833;DHT22;56075;51.264;7.150;2023-02-19T00:48:32;9.50;99.90
20833;DHT22;56075;51.264;7.150;2023-02-19T00:51:03;9.60;99.90
20833;DHT22;56075;51.264;7.150;2023-02-19T00:56:07;9.70;99.90
20833;DHT22;56075;51.264;7.150;2023-02-19T00:58:38;9.50;99.90
20833;DHT22;56075;51.264;7.150;2023-02-19T01:01:10;9.60;99.90
20833;DHT22;56075;51.264;7.150;2023-02-19T01:03:41;9.70;99.90
20833;DHT22;56075;51.264;7.150;2023-02-19T01:06:14;9.60;99.90
20833;DHT22;56075;51.264;7.150;2023-02-19T01:08:46;9.50;99.90
20833;DHT22;56075;51.264;7.150;2023-02-19T01:13:50;9.60;99.90
20833;DHT22;56075;51.264;7.150;2023-02-19T01:16:21;9.70;99.90
20833;DHT22;56075;51.264;7.150;2023-02-19T01:18:57;9.40;99.90
20833;DHT22;56075;51.264;7.150;2023-02-19T01:21:30;9.70;99.90
20833;DHT22;56075;51.264;7.150;2023-02-19T01:24:01;9.60;99.90
20833;DHT22;56075;51.264;7.150;2023-02-19T01:26:32;9.70;99.90
20833;DHT22;56075;51.264;7.150;2023-02-19T01:29:03;9.60;99.90
20833;DHT22;56075;51.264;7.150;2023-02-19T01:31:35;9.70;99.90
20833;DHT22;56075;51.264;7.150;2023-02-19T01:34:09;9.50;99.90
20833;DHT22;56075;51.264;7.150;2023-02-19T01:36:40;9.60;99.90
20833;DHT22;56075;51.264;7.150;2023-02-19T01:39:12;9.70;99.90
20833;DHT22;56075;51.264;7.150;2023-02-19T01:41:43;9.60;99.90
20833;DHT22;56075;51.264;7.150;2023-02-19T01:46:46;9.70;99.90
20833;DHT22;56075;51.264;7.150;2023-02-19T01:49:26;9.60;99.90
20833;DHT22;56075;51.264;7.150;2023-02-19T01:54:42;9.70;99.90
20833;DHT22;56075;51.264;7.150;2023-02-19T01:57:25;9.60;99.90
20833;DHT22;56075;51.264;7.150;2023-02-19T02:00:03;9.70;99.90
20833;DHT22;56075;51.264;7.150;2023-02-19T02:02:48;9.60;99.90
20833;DHT22;56075;51.264;7.150;2023-02-19T02:08:01;9.60;99.90
20833;DHT22;56075;51.264;7.150;2023-02-19T02:10:53;9.50;99.90
20833;DHT22;56075;51.264;7.150;2023-02-19T02:13:25;9.50;99.90
20833;DHT22;56075;51.264;7.150;2023-02-19T02:16:09;9.50;99.90
20833;DHT22;56075;51.264;7.150;2023-02-19T02:18:54;9.50;99.90
20833;DHT22;56075;51.264;7.150;2023-02-19T02:21:48;9.60;99.90
20833;DHT22;56075;51.264;7.150;2023-02-19T02:24:49;9.70;99.90
20833;DHT22;56075;51.264;7.150;2023-02-19T02:38:24;9.20;99.90
20833;DHT22;56075;51.264;7.150;2023-02-19T02:40:58;9.60;99.90
20833;DHT22;56075;51.264;7.150;2023-02-19T02:43:29;9.70;99.90
20833;DHT22;56075;51.264;7.150;2023-02-19T02:46:00;9.60;99.90
20833;DHT22;56075;51.264;7.150;2023-02-19T02:48:44;9.60;99.90
20833;DHT22;56075;51.264;7.150;2023-02-19T02:54:03;9.60;99.90
20833;DHT22;56075;51.264;7.150;2023-02-19T02:56:55;9.60;99.90
20833;DHT22;56075;51.264;7.150;2023-02-19T02:59:33;9.80;99.90
20833;DHT22;56075;51.264;7.150;2023-02-19T03:02:07;9.60;99.90
20833;DHT22;56075;51.264;7.150;2023-02-19T03:05:06;11.60;99.90
20833;DHT22;56075;51.264;7.150;2023-02-19T03:08:15;9.60;99.90
20833;DHT22;56075;51.264;7.150;2023-02-19T03:10:51;9.60;99.90
20833;DHT22;56075;51.264;7.150;2023-02-19T03:13:29;9.70;99.90
20833;DHT22;56075;51.264;7.150;2023-02-19T03:16:25;9.60;99.90
20833;DHT22;56075;51.264;7.150;2023-02-19T03:19:19;9.60;99.90
20833;DHT22;56075;51.264;7.150;2023-02-19T03:21:59;9.70;99.90
20833;DHT22;56075;51.264;7.150;2023-02-19T03:24:35;9.70;99.90
20833;DHT22;56075;51.264;7.150;2023-02-19T03:27:27;9.70;99.90
20833;DHT22;56075;51.264;7.150;2023-02-19T03:30:14;9.60;99.90
20833;DHT22;56075;51.264;7.150;2023-02-19T03:32:56;9.50;99.90
20833;DHT22;56075;51.264;7.150;2023-02-19T03:35:31;9.50;99.90
20833;DHT22;56075;51.264;7.150;2023-02-19T03:38:14;9.50;99.90
20833;DHT22;56075;51.264;7.150;2023-02-19T03:41:03;9.40;99.90
20833;DHT22;56075;51.264;7.150;2023-02-19T03:43:51;9.30;99.90
20833;DHT22;56075;51.264;7.150;2023-02-19T03:49:48;9.50;99.90
20833;DHT22;56075;51.264;7.150;2023-02-19T03:55:16;9.50;99.90
20833;DHT22;56075;51.264;7.150;2023-02-19T03:57:59;9.50;99.90
20833;DHT22;56075;51.264;7.150;2023-02-19T04:00:37;9.60;99.90
20833;DHT22;56075;51.264;7.150;2023-02-19T04:03:44;9.50;99.90
20833;DHT22;56075;51.264;7.150;2023-02-19T04:06:21;9.50;99.90
20833;DHT22;56075;51.264;7.150;2023-02-19T04:08:55;9.50;99.90
20833;DHT22;56075;51.264;7.150;2023-02-19T04:11:29;9.50;99.90
20833;DHT22;56075;51.264;7.150;2023-02-19T04:14:11;9.40;99.90
20833;DHT22;56075;51.264;7.150;2023-02-19T04:16:48;9.50;99.90
20833;DHT22;56075;51.264;7.150;2023-02-19T04:19:22;9.40;99.90
20833;DHT22;56075;51.264;7.150;2023-02-19T04:24:36;9.50;99.90
20833;DHT22;56075;51.264;7.150;2023-02-19T04:27:09;9.50;99.90
20833;DHT22;56075;51.264;7.150;2023-02-19T04:29:40;9.30;99.90
20833;DHT22;56075;51.264;7.150;2023-02-19T04:32:12;9.50;99.90
20833;DHT22;56075;51.264;7.150;2023-02-19T04:34:44;9.50;99.90
20833;DHT22;56075;51.264;7.150;2023-02-19T04:37:15;9.40;99.90
20833;DHT22;56075;51.264;7.150;2023-02-19T04:39:46;9.30;99.90
20833;DHT22;56075;51.264;7.150;2023-02-19T04:42:17;9.30;99.90
20833;DHT22;56075;51.264;7.150;2023-02-19T04:44:48;9.40;99.90
20833;DHT22;56075;51.264;7.150;2023-02-19T04:47:19;9.30;99.90
20833;DHT22;56075;51.264;7.150;2023-02-19T04:49:50;9.40;99.90
20833;DHT22;56075;51.264;7.150;2023-02-19T04:52:21;9.40;99.90
20833;DHT22;56075;51.264;7.150;2023-02-19T04:54:52;9.30;99.90
20833;DHT22;56075;51.264;7.150;2023-02-19T04:57:24;9.30;99.90
20833;DHT22;56075;51.264;7.150;2023-02-19T04:59:55;9.40;99.90
20833;DHT22;56075;51.264;7.150;2023-02-19T05:02:26;9.30;99.90
20833;DHT22;56075;51.264;7.150;2023-02-19T05:04:57;9.40;99.90
20833;DHT22;56075;51.264;7.150;2023-02-19T05:07:28;9.20;99.90
20833;DHT22;56075;51.264;7.150;2023-02-19T05:09:59;9.30;99.90
20833;DHT22;56075;51.264;7.150;2023-02-19T05:12:30;9.30;99.90
20833;DHT22;56075;51.264;7.150;2023-02-19T05:15:01;9.10;99.90
20833;DHT22;56075;51.264;7.150;2023-02-19T05:17:33;9.20;99.90
20833;DHT22;56075;51.264;7.150;2023-02-19T05:20:05;9.10;99.90
20833;DHT22;56075;51.264;7.150;2023-02-19T05:22:36;9.20;99.90
20833;DHT22;56075;51.264;7.150;2023-02-19T05:25:07;9.10;99.90
20833;DHT22;56075;51.264;7.150;2023-02-19T05:27:38;9.30;99.90
20833;DHT22;56075;51.264;7.150;2023-02-19T05:30:10;9.20;99.90
20833;DHT22;56075;51.264;7.150;2023-02-19T05:32:41;9.10;99.90
20833;DHT22;56075;51.264;7.150;2023-02-19T05:35:12;9.20;99.90
20833;DHT22;56075;51.264;7.150;2023-02-19T05:37:43;9.10;99.90
20833;DHT22;56075;51.264;7.150;2023-02-19T05:40:14;9.20;99.90
20833;DHT22;56075;51.264;7.150;2023-02-19T05:42:45;9.10;99.90
20833;DHT22;56075;51.264;7.150;2023-02-19T05:45:17;9.40;99.90
20833;DHT22;56075;51.264;7.150;2023-02-19T05:47:48;9.20;99.90
20833;DHT22;56075;51.264;7.150;2023-02-19T05:50:19;9.20;99.90
20833;DHT22;56075;51.264;7.150;2023-02-19T05:52:50;9.20;99.90
20833;DHT22;56075;51.264;7.150;2023-02-19T05:55:21;9.10;99.90
20833;DHT22;56075;51.264;7.150;2023-02-19T05:57:52;9.10;99.90
20833;DHT22;56075;51.264;7.150;2023-02-19T06:00:24;9.30;99.90
20833;DHT22;56075;51.264;7.150;2023-02-19T06:02:56;9.20;99.90
20833;DHT22;56075;51.264;7.150;2023-02-19T06:07:59;9.10;99.90
20833;DHT22;56075;51.264;7.150;2023-02-19T06:10:30;9.10;99.90
20833;DHT22;56075;51.264;7.150;2023-02-19T06:13:01;9.10;99.90
20833;DHT22;56075;51.264;7.150;2023-02-19T06:15:32;9.10;99.90
20833;DHT22;56075;51.264;7.150;2023-02-19T06:18:03;9.10;99.90
20833;DHT22;56075;51.264;7.150;2023-02-19T06:20:34;9.20;99.90
20833;DHT22;56075;51.264;7.150;2023-02-19T06:23:06;9.10;99.90
20833;DHT22;56075;51.264;7.150;2023-02-19T06:25:37;9.00;99.90
20833;DHT22;56075;51.264;7.150;2023-02-19T06:28:08;9.10;99.90
20833;DHT22;56075;51.264;7.150;2023-02-19T06:30:40;8.90;99.90
20833;DHT22;56075;51.264;7.150;2023-02-19T06:33:11;9.00;99.90
20833;DHT22;56075;51.264;7.150;2023-02-19T06:35:42;9.00;99.90
20833;DHT22;56075;51.264;7.150;2023-02-19T06:38:13;8.90;99.90
20833;DHT22;56075;51.264;7.150;2023-02-19T06:40:44;9.10;99.90
20833;DHT22;56075;51.264;7.150;2023-02-19T06:43:16;9.00;99.90
20833;DHT22;56075;51.264;7.150;2023-02-19T06:45:47;8.80;99.90
20833;DHT22;56075;51.264;7.150;2023-02-19T06:48:19;8.90;99.90
20833;DHT22;56075;51.264;7.150;2023-02-19T06:50:50;8.70;99.90
20833;DHT22;56075;51.264;7.150;2023-02-19T06:53:21;8.70;99.90
20833;DHT22;56075;51.264;7.150;2023-02-19T06:55:57;8.80;99.90
20833;DHT22;56075;51.264;7.150;2023-02-19T06:58:28;8.80;99.90
20833;DHT22;56075;51.264;7.150;2023-02-19T07:00:59;8.90;99.90
20833;DHT22;56075;51.264;7.150;2023-02-19T07:03:31;8.90;99.90
20833;DHT22;56075;51.264;7.150;2023-02-19T07:06:02;8.90;99.90
20833;DHT22;56075;51.264;7.150;2023-02-19T07:08:33;8.90;99.90
20833;DHT22;56075;51.264;7.150;2023-02-19T07:11:04;8.80;99.90
20833;DHT22;56075;51.264;7.150;2023-02-19T07:13:35;8.60;99.90
20833;DHT22;56075;51.264;7.150;2023-02-19T07:18:39;8.80;99.90
20833;DHT22;56075;51.264;7.150;2023-02-19T07:21:13;8.80;99.90
20833;DHT22;56075;51.264;7.150;2023-02-19T07:23:44;8.80;99.90
20833;DHT22;56075;51.264;7.150;2023-02-19T07:26:17;8.60;99.90
20833;DHT22;56075;51.264;7.150;2023-02-19T07:28:49;8.90;99.90
20833;DHT22;56075;51.264;7.150;2023-02-19T07:31:22;8.70;99.90
20833;DHT22;56075;51.264;7.150;2023-02-19T07:33:54;8.70;99.90
20833;DHT22;56075;51.264;7.150;2023-02-19T07:36:25;8.80;99.90
20833;DHT22;56075;51.264;7.150;2023-02-19T07:38:57;8.80;99.90
20833;DHT22;56075;51.264;7.150;2023-02-19T07:41:29;9.00;99.90
20833;DHT22;56075;51.264;7.150;2023-02-19T07:44:02;8.80;99.90
20833;DHT22;56075;51.264;7.150;2023-02-19T07:51:37;8.90;99.90
20833;DHT22;56075;51.264;7.150;2023-02-19T07:54:09;8.40;99.90
20833;DHT22;56075;51.264;7.150;2023-02-19T07:56:41;8.70;99.90
20833;DHT22;56075;51.264;7.150;2023-02-19T08:01:45;8.80;99.90
20833;DHT22;56075;51.264;7.150;2023-02-19T08:04:35;8.80;99.90
20833;DHT22;56075;51.264;7.150;2023-02-19T08:09:37;8.70;99.90
20833;DHT22;56075;51.264;7.150;2023-02-19T08:12:10;8.60;99.90
20833;DHT22;56075;51.264;7.150;2023-02-19T08:15:00;8.70;99.90
20833;DHT22;56075;51.264;7.150;2023-02-19T08:17:32;9.00;99.90
20833;DHT22;56075;51.264;7.150;2023-02-19T08:20:03;8.80;99.90
20833;DHT22;56075;51.264;7.150;2023-02-19T08:22:34;8.90;99.90
20833;DHT22;56075;51.264;7.150;2023-02-19T08:27:37;8.70;99.90
20833;DHT22;56075;51.264;7.150;2023-02-19T08:30:08;8.80;99.90
20833;DHT22;56075;51.264;7.150;2023-02-19T08:32:39;8.80;99.90
20833;DHT22;56075;51.264;7.150;2023-02-19T08:35:10;8.90;99.90
20833;DHT22;56075;51.264;7.150;2023-02-19T08:37:41;9.00;99.90
20833;DHT22;56075;51.264;7.150;2023-02-19T08:40:12;8.70;99.90
20833;DHT22;56075;51.264;7.150;2023-02-19T08:42:44;9.00;99.90
20833;DHT22;56075;51.264;7.150;2023-02-19T08:45:15;9.00;99.90
20833;DHT22;56075;51.264;7.150;2023-02-19T08:47:46;9.00;99.90
20833;DHT22;56075;51.264;7.150;2023-02-19T08:50:17;9.10;99.90
20833;DHT22;56075;51.264;7.150;2023-02-19T08:52:48;9.00;99.90
20833;DHT22;56075;51.264;7.150;2023-02-19T08:55:19;9.00;99.90
20833;DHT22;56075;51.264;7.150;2023-02-19T08:57:51;8.90;99.90
20833;DHT22;56075;51.264;7.150;2023-02-19T09:05:25;9.00;99.90
20833;DHT22;56075;51.264;7.150;2023-02-19T09:07:56;9.10;99.90
20833;DHT22;56075;51.264;7.150;2023-02-19T09:10:27;9.10;99.90
20833;DHT22;56075;51.264;7.150;2023-02-19T09:12:58;9.10;99.90
20833;DHT22;56075;51.264;7.150;2023-02-19T09:15:29;9.10;99.90
20833;DHT22;56075;51.264;7.150;2023-02-19T09:18:00;9.30;99.90
20833;DHT22;56075;51.264;7.150;2023-02-19T09:20:33;9.00;99.90
20833;DHT22;56075;51.264;7.150;2023-02-19T09:23:04;8.80;99.90
20833;DHT22;56075;51.264;7.150;2023-02-19T09:25:35;9.00;99.90
20833;DHT22;56075;51.264;7.150;2023-02-19T09:28:06;8.90;99.90
20833;DHT22;56075;51.264;7.150;2023-02-19T09:30:37;9.10;99.90
20833;DHT22;56075;51.264;7.150;2023-02-19T09:33:08;8.90;99.90
20833;DHT22;56075;51.264;7.150;2023-02-19T09:35:39;9.10;99.90
20833;DHT22;56075;51.264;7.150;2023-02-19T09:38:10;9.00;99.90
20833;DHT22;56075;51.264;7.150;2023-02-19T09:40:41;9.00;99.90
20833;DHT22;56075;51.264;7.150;2023-02-19T09:43:16;9.10;99.90
20833;DHT22;56075;51.264;7.150;2023-02-19T09:46:02;9.10;99.90
20833;DHT22;56075;51.264;7.150;2023-02-19T09:48:33;9.10;99.90
20833;DHT22;56075;51.264;7.150;2023-02-19T09:51:07;9.00;99.90
20833;DHT22;56075;51.264;7.150;2023-02-19T09:53:41;10.50;99.90
20833;DHT22;56075;51.264;7.150;2023-02-19T09:58:48;9.10;99.90
20833;DHT22;56075;51.264;7.150;2023-02-19T10:01:27;9.10;99.90
20833;DHT22;56075;51.264;7.150;2023-02-19T10:03:59;9.00;99.90
20833;DHT22;56075;51.264;7.150;2023-02-19T10:06:31;9.00;99.90
20833;DHT22;56075;51.264;7.150;2023-02-19T10:09:22;9.00;99.90
20833;DHT22;56075;51.264;7.150;2023-02-19T10:11:57;9.00;99.90
20833;DHT22;56075;51.264;7.150;2023-02-19T10:14:40;9.00;99.90
20833;DHT22;56075;51.264;7.150;2023-02-19T10:17:23;8.80;99.90
20833;DHT22;56075;51.264;7.150;2023-02-19T10:19:56;8.90;99.90
20833;DHT22;56075;51.264;7.150;2023-02-19T10:22:28;9.00;99.90
20833;DHT22;56075;51.264;7.150;2023-02-19T10:24:59;8.90;99.90
20833;DHT22;56075;51.264;7.150;2023-02-19T10:27:30;8.90;99.90
20833;DHT22;56075;51.264;7.150;2023-02-19T10:30:02;9.10;99.90
20833;DHT22;56075;51.264;7.150;2023-02-19T10:32:33;9.00;99.90
20833;DHT22;56075;51.264;7.150;2023-02-19T10:35:15;8.80;99.90
20833;DHT22;56075;51.264;7.150;2023-02-19T10:37:48;8.90;99.90
20833;DHT22;56075;51.264;7.150;2023-02-19T10:40:23;8.90;99.90
20833;DHT22;56075;51.264;7.150;2023-02-19T10:42:57;8.90;99.90
20833;DHT22;56075;51.264;7.150;2023-02-19T10:45:39;8.90;99.90
20833;DHT22;56075;51.264;7.150;2023-02-19T10:48:23;9.20;99.90
20833;DHT22;56075;51.264;7.150;2023-02-19T10:51:01;9.00;99.90
20833;DHT22;56075;51.264;7.150;2023-02-19T10:53:42;9.20;99.90
20833;DHT22;56075;51.264;7.150;2023-02-19T10:56:22;9.30;99.90
20833;DHT22;56075;51.264;7.150;2023-02-19T11:02:14;10.00;99.90
20833;DHT22;56075;51.264;7.150;2023-02-19T11:07:36;9.60;99.90
20833;DHT22;56075;51.264;7.150;2023-02-19T11:13:14;9.70;99.90
20833;DHT22;56075;51.264;7.150;2023-02-19T11:15:51;9.60;99.90
20833;DHT22;56075;51.264;7.150;2023-02-19T11:18:28;9.80;99.90
20833;DHT22;56075;51.264;7.150;2023-02-19T11:21:03;10.70;99.90
20833;DHT22;56075;51.264;7.150;2023-02-19T11:23:36;9.90;99.90
20833;DHT22;56075;51.264;7.150;2023-02-19T11:26:17;10.10;99.90
20833;DHT22;56075;51.264;7.150;2023-02-19T11:29:00;9.90;99.90
20833;DHT22;56075;51.264;7.150;2023-02-19T11:31:32;10.00;99.90
20833;DHT22;56075;51.264;7.150;2023-02-19T11:37:11;9.90;99.90
20833;DHT22;56075;51.264;7.150;2023-02-19T11:39:50;9.80;99.90
20833;DHT22;56075;51.264;7.150;2023-02-19T11:42:48;9.70;99.90
20833;DHT22;56075;51.264;7.150;2023-02-19T11:53:34;9.60;99.90
20833;DHT22;56075;51.264;7.150;2023-02-19T12:08:29;10.00;99.90
20833;DHT22;56075;51.264;7.150;2023-02-19T12:14:11;10.10;99.90
20833;DHT22;56075;51.264;7.150;2023-02-19T12:31:09;9.50;99.90
20833;DHT22;56075;51.264;7.150;2023-02-19T12:51:13;9.30;99.90
20833;DHT22;56075;51.264;7.150;2023-02-19T12:57:03;9.20;99.90
20833;DHT22;56075;51.264;7.150;2023-02-19T12:59:42;9.20;99.90
20833;DHT22;56075;51.264;7.150;2023-02-19T13:02:26;9.30;99.90
20833;DHT22;56075;51.264;7.150;2023-02-19T13:13:34;9.40;99.90
20833;DHT22;56075;51.264;7.150;2023-02-19T13:16:13;9.40;99.90
20833;DHT22;56075;51.264;7.150;2023-02-19T13:18:48;9.40;99.90
20833;DHT22;56075;51.264;7.150;2023-02-19T13:21:22;9.40;99.90
20833;DHT22;56075;51.264;7.150;2023-02-19T13:27:04;9.20;99.90
20833;DHT22;56075;51.264;7.150;2023-02-19T13:35:41;9.20;99.90
20833;DHT22;56075;51.264;7.150;2023-02-19T13:38:21;9.10;99.90
20833;DHT22;56075;51.264;7.150;2023-02-19T13:40:57;9.40;99.90
20833;DHT22;56075;51.264;7.150;2023-02-19T13:43:32;9.20;99.90
20833;DHT22;56075;51.264;7.150;2023-02-19T13:46:10;9.20;99.90
20833;DHT22;56075;51.264;7.150;2023-02-19T13:48:42;9.30;99.90
20833;DHT22;56075;51.264;7.150;2023-02-19T13:59:33;9.50;99.90
20833;DHT22;56075;51.264;7.150;2023-02-19T14:02:12;9.50;99.90
20833;DHT22;56075;51.264;7.150;2023-02-19T14:04:45;9.40;99.90
20833;DHT22;56075;51.264;7.150;2023-02-19T14:09:57;9.50;99.90
20833;DHT22;56075;51.264;7.150;2023-02-19T14:12:34;11.10;99.90
20833;DHT22;56075;51.264;7.150;2023-02-19T14:17:55;9.50;99.90
20833;DHT22;56075;51.264;7.150;2023-02-19T14:20:42;10.80;99.90
20833;DHT22;56075;51.264;7.150;2023-02-19T14:23:24;9.50;99.90
20833;DHT22;56075;51.264;7.150;2023-02-19T14:25:59;9.60;99.90
20833;DHT22;56075;51.264;7.150;2023-02-19T14:28:51;9.60;99.90
20833;DHT22;56075;51.264;7.150;2023-02-19T14:31:29;9.90;99.90
20833;DHT22;56075;51.264;7.150;2023-02-19T14:34:21;9.60;99.90
20833;DHT22;56075;51.264;7.150;2023-02-19T14:36:57;9.50;99.90
20833;DHT22;56075;51.264;7.150;2023-02-19T14:39:31;9.60;99.90
20833;DHT22;56075;51.264;7.150;2023-02-19T14:42:21;9.60;99.90
20833;DHT22;56075;51.264;7.150;2023-02-19T14:44:56;10.00;99.90
20833;DHT22;56075;51.264;7.150;2023-02-19T14:47:29;9.60;99.90
20833;DHT22;56075;51.264;7.150;2023-02-19T14:50:07;11.10;99.90
20833;DHT22;56075;51.264;7.150;2023-02-19T14:52:48;9.60;99.90
20833;DHT22;56075;51.264;7.150;2023-02-19T14:55:30;9.60;99.90
20833;DHT22;56075;51.264;7.150;2023-02-19T14:58:14;9.80;99.90
20833;DHT22;56075;51.264;7.150;2023-02-19T15:00:45;9.80;99.90
20833;DHT22;56075;51.264;7.150;2023-02-19T15:03:27;9.90;99.90
20833;DHT22;56075;51.264;7.150;2023-02-19T15:06:12;9.60;99.90
20833;DHT22;56075;51.264;7.150;2023-02-19T15:08:48;10.80;99.90
20833;DHT22;56075;51.264;7.150;2023-02-19T15:11:23;9.80;99.90
20833;DHT22;56075;51.264;7.150;2023-02-19T15:13:58;9.70;99.90
20833;DHT22;56075;51.264;7.150;2023-02-19T15:16:31;9.70;99.90
20833;DHT22;56075;51.264;7.150;2023-02-19T15:19:08;9.70;99.90
20833;DHT22;56075;51.264;7.150;2023-02-19T15:21:45;9.60;99.90
20833;DHT22;56075;51.264;7.150;2023-02-19T15:24:18;9.60;99.90
20833;DHT22;56075;51.264;7.150;2023-02-19T15:26:50;9.60;99.90
20833;DHT22;56075;51.264;7.150;2023-02-19T15:29:26;9.50;99.90
20833;DHT22;56075;51.264;7.150;2023-02-19T15:31:59;11.30;99.90
20833;DHT22;56075;51.264;7.150;2023-02-19T15:34:31;9.60;99.90
20833;DHT22;56075;51.264;7.150;2023-02-19T15:37:07;9.40;99.90
20833;DHT22;56075;51.264;7.150;2023-02-19T15:39:42;9.40;99.90
20833;DHT22;56075;51.264;7.150;2023-02-19T15:42:17;9.30;99.90
20833;DHT22;56075;51.264;7.150;2023-02-19T15:45:03;9.40;99.90
20833;DHT22;56075;51.264;7.150;2023-02-19T15:48:00;9.40;99.90
20833;DHT22;56075;51.264;7.150;2023-02-19T15:50:36;9.50;99.90
20833;DHT22;56075;51.264;7.150;2023-02-19T15:53:16;9.50;99.90
20833;DHT22;56075;51.264;7.150;2023-02-19T15:56:02;9.40;99.90
20833;DHT22;56075;51.264;7.150;2023-02-19T15:58:41;9.40;99.90
20833;DHT22;56075;51.264;7.150;2023-02-19T16:01:40;9.20;99.90
20833;DHT22;56075;51.264;7.150;2023-02-19T16:04:16;9.20;99.90
20833;DHT22;56075;51.264;7.150;2023-02-19T16:07:01;9.10;99.90
20833;DHT22;56075;51.264;7.150;2023-02-19T16:09:36;9.40;99.90
20833;DHT22;56075;51.264;7.150;2023-02-19T16:12:22;9.00;99.90
20833;DHT22;56075;51.264;7.150;2023-02-19T16:14:54;9.10;99.90
20833;DHT22;56075;51.264;7.150;2023-02-19T16:17:26;9.10;99.90
20833;DHT22;56075;51.264;7.150;2023-02-19T16:20:00;9.00;99.90
20833;DHT22;56075;51.264;7.150;2023-02-19T16:22:39;8.90;99.90
20833;DHT22;56075;51.264;7.150;2023-02-19T16:25:24;9.00;99.90
20833;DHT22;56075;51.264;7.150;2023-02-19T16:27:56;9.10;99.90
20833;DHT22;56075;51.264;7.150;2023-02-19T16:30:31;8.90;99.90
20833;DHT22;56075;51.264;7.150;2023-02-19T16:36:34;8.90;99.90
20833;DHT22;56075;51.264;7.150;2023-02-19T16:46:53;8.90;99.90
20833;DHT22;56075;51.264;7.150;2023-02-19T16:49:25;8.70;99.90
20833;DHT22;56075;51.264;7.150;2023-02-19T16:52:01;9.00;99.90
20833;DHT22;56075;51.264;7.150;2023-02-19T16:57:05;8.70;99.90
20833;DHT22;56075;51.264;7.150;2023-02-19T16:59:36;8.60;99.90
20833;DHT22;56075;51.264;7.150;2023-02-19T17:02:13;8.80;99.90
20833;DHT22;56075;51.264;7.150;2023-02-19T17:04:46;8.70;99.90
20833;DHT22;56075;51.264;7.150;2023-02-19T17:07:18;8.50;99.90
20833;DHT22;56075;51.264;7.150;2023-02-19T17:09:49;8.70;99.90
20833;DHT22;56075;51.264;7.150;2023-02-19T17:12:22;8.70;99.90
20833;DHT22;56075;51.264;7.150;2023-02-19T17:14:53;8.60;99.90
20833;DHT22;56075;51.264;7.150;2023-02-19T17:17:24;8.40;99.90
20833;DHT22;56075;51.264;7.150;2023-02-19T17:19:55;8.30;99.90
20833;DHT22;56075;51.264;7.150;2023-02-19T17:22:27;8.40;99.90
20833;DHT22;56075;51.264;7.150;2023-02-19T17:24:58;8.40;99.90
20833;DHT22;56075;51.264;7.150;2023-02-19T17:27:29;8.20;99.90
20833;DHT22;56075;51.264;7.150;2023-02-19T17:30:01;8.30;99.90
20833;DHT22;56075;51.264;7.150;2023-02-19T17:32:32;8.10;99.90
20833;DHT22;56075;51.264;7.150;2023-02-19T17:35:03;8.00;99.90
20833;DHT22;56075;51.264;7.150;2023-02-19T17:37:35;8.20;99.90
20833;DHT22;56075;51.264;7.150;2023-02-19T17:40:27;8.20;99.90
20833;DHT22;56075;51.264;7.150;2023-02-19T17:42:59;8.00;99.90
20833;DHT22;56075;51.264;7.150;2023-02-19T17:45:30;8.20;99.90
20833;DHT22;56075;51.264;7.150;2023-02-19T17:48:02;8.20;99.90
20833;DHT22;56075;51.264;7.150;2023-02-19T17:50:33;8.10;99.90
20833;DHT22;56075;51.264;7.150;2023-02-19T17:53:04;8.10;99.90
20833;DHT22;56075;51.264;7.150;2023-02-19T17:55:36;8.10;99.90
20833;DHT22;56075;51.264;7.150;2023-02-19T17:58:07;8.20;99.90
20833;DHT22;56075;51.264;7.150;2023-02-19T18:00:38;8.10;99.90
20833;DHT22;56075;51.264;7.150;2023-02-19T18:03:10;8.10;99.90
20833;DHT22;56075;51.264;7.150;2023-02-19T18:05:41;7.90;99.90
20833;DHT22;56075;51.264;7.150;2023-02-19T18:08:13;8.10;99.90
20833;DHT22;56075;51.264;7.150;2023-02-19T18:10:44;8.00;99.90
20833;DHT22;56075;51.264;7.150;2023-02-19T18:13:15;8.00;99.90
20833;DHT22;56075;51.264;7.150;2023-02-19T18:15:47;8.10;99.90
20833;DHT22;56075;51.264;7.150;2023-02-19T18:18:18;8.10;99.90
20833;DHT22;56075;51.264;7.150;2023-02-19T18:20:50;8.00;99.90
20833;DHT22;56075;51.264;7.150;2023-02-19T18:23:21;8.00;99.90
20833;DHT22;56075;51.264;7.150;2023-02-19T18:25:53;8.10;99.90
20833;DHT22;56075;51.264;7.150;2023-02-19T18:28:24;8.00;99.90
20833;DHT22;56075;51.264;7.150;2023-02-19T18:30:55;7.90;99.90
20833;DHT22;56075;51.264;7.150;2023-02-19T18:33:27;7.90;99.90
20833;DHT22;56075;51.264;7.150;2023-02-19T18:35:58;7.90;99.90
20833;DHT22;56075;51.264;7.150;2023-02-19T18:38:29;8.00;99.90
20833;DHT22;56075;51.264;7.150;2023-02-19T18:41:01;7.90;99.90
20833;DHT22;56075;51.264;7.150;2023-02-19T18:43:32;7.90;99.90
20833;DHT22;56075;51.264;7.150;2023-02-19T18:46:07;7.80;99.90
20833;DHT22;56075;51.264;7.150;2023-02-19T18:48:39;7.80;99.90
20833;DHT22;56075;51.264;7.150;2023-02-19T18:51:10;8.00;99.90
20833;DHT22;56075;51.264;7.150;2023-02-19T18:53:41;7.70;99.90
20833;DHT22;56075;51.264;7.150;2023-02-19T18:56:13;7.70;99.90
20833;DHT22;56075;51.264;7.150;2023-02-19T18:58:44;7.50;99.90
20833;DHT22;56075;51.264;7.150;2023-02-19T19:01:16;7.70;99.90
20833;DHT22;56075;51.264;7.150;2023-02-19T19:03:47;7.60;99.90
20833;DHT22;56075;51.264;7.150;2023-02-19T19:06:18;7.60;99.90
20833;DHT22;56075;51.264;7.150;2023-02-19T19:08:49;7.80;99.90
20833;DHT22;56075;51.264;7.150;2023-02-19T19:11:21;7.70;99.90
20833;DHT22;56075;51.264;7.150;2023-02-19T19:13:52;7.50;99.90
20833;DHT22;56075;51.264;7.150;2023-02-19T19:16:25;7.70;99.90
20833;DHT22;56075;51.264;7.150;2023-02-19T19:18:56;7.60;99.90
20833;DHT22;56075;51.264;7.150;2023-02-19T19:21:27;7.50;99.90
20833;DHT22;56075;51.264;7.150;2023-02-19T19:23:59;7.50;99.90
20833;DHT22;56075;51.264;7.150;2023-02-19T19:26:30;7.70;99.90
20833;DHT22;56075;51.264;7.150;2023-02-19T19:31:35;7.60;99.90
20833;DHT22;56075;51.264;7.150;2023-02-19T19:34:07;7.50;99.90